createdAt,value
2022-10-07T00:00:59.792Z,29.80
2022-10-07T00:03:28.016Z,27.15
2022-10-07T00:06:05.563Z,26.13
2022-10-07T00:08:33.133Z,23.98
2022-10-07T00:11:05.277Z,27.45
2022-10-07T00:13:32.699Z,26.83
2022-10-07T00:16:08.145Z,25.25
2022-10-07T00:18:36.978Z,19.40
2022-10-07T00:21:10.283Z,23.92
2022-10-07T00:23:37.560Z,22.45
2022-10-07T00:26:07.427Z,22.67
2022-10-07T00:28:35.575Z,24.27
2022-10-07T00:31:06.222Z,20.45
2022-10-07T00:33:35.845Z,19.95
2022-10-07T00:36:09.404Z,20.30
2022-10-07T00:38:36.548Z,19.50
2022-10-07T00:41:03.549Z,21.35
2022-10-07T00:43:32.153Z,17.85
2022-10-07T00:46:29.870Z,16.88
2022-10-07T00:49:00.439Z,19.20
2022-10-07T00:51:28.349Z,17.65
2022-10-07T00:53:56.795Z,18.33
2022-10-07T00:56:27.432Z,18.90
2022-10-07T00:58:54.521Z,17.35
2022-10-07T01:01:22.108Z,18.88
2022-10-07T01:03:49.578Z,18.27
2022-10-07T01:06:17.024Z,17.15
2022-10-07T01:08:46.171Z,15.52
2022-10-07T01:11:31.147Z,17.02
2022-10-07T01:14:13.935Z,14.25
2022-10-07T01:16:40.918Z,15.82
2022-10-07T01:19:29.395Z,13.20
2022-10-07T01:22:17.257Z,16.00
2022-10-07T01:25:14.816Z,14.90
2022-10-07T01:27:50.432Z,16.75
2022-10-07T01:30:18.601Z,15.27
2022-10-07T01:32:55.418Z,15.77
2022-10-07T01:35:28.074Z,17.30
2022-10-07T01:38:00.546Z,15.68
2022-10-07T01:40:33.775Z,16.38
2022-10-07T01:43:01.996Z,14.02
2022-10-07T01:45:31.316Z,15.75
2022-10-07T01:47:59.655Z,15.18
2022-10-07T01:50:28.822Z,16.77
2022-10-07T01:53:04.566Z,15.20
2022-10-07T01:55:49.817Z,16.17
2022-10-07T01:58:33.638Z,15.48
2022-10-07T02:01:23.028Z,14.65
2022-10-07T02:04:02.010Z,15.02
2022-10-07T02:07:07.481Z,14.50
2022-10-07T02:09:49.248Z,15.43
2022-10-07T02:12:41.215Z,14.88
2022-10-07T02:15:20.411Z,13.30
2022-10-07T02:17:52.588Z,15.25
2022-10-07T02:20:22.808Z,14.43
2022-10-07T02:22:52.438Z,14.75
2022-10-07T02:25:21.397Z,15.68
2022-10-07T02:27:52.500Z,14.93
2022-10-07T02:30:20.751Z,13.13
2022-10-07T02:32:55.906Z,16.00
2022-10-07T02:35:45.925Z,15.52
2022-10-07T02:38:16.582Z,15.30
2022-10-07T02:40:50.206Z,15.35
2022-10-07T02:43:32.374Z,15.02
2022-10-07T02:46:11.596Z,15.15
2022-10-07T02:48:44.428Z,14.82
2022-10-07T02:51:21.229Z,15.98
2022-10-07T02:53:51.327Z,17.63
2022-10-07T02:56:22.380Z,16.45
2022-10-07T02:58:51.368Z,15.80
2022-10-07T03:01:23.668Z,16.90
2022-10-07T03:03:50.703Z,16.30
2022-10-07T03:06:23.611Z,16.10
2022-10-07T03:08:53.102Z,18.13
2022-10-07T03:11:20.067Z,16.45
2022-10-07T03:13:47.004Z,16.15
2022-10-07T03:16:14.003Z,16.27
2022-10-07T03:18:41.570Z,15.80
2022-10-07T03:21:09.023Z,16.20
2022-10-07T03:23:35.945Z,17.70
2022-10-07T03:26:03.131Z,17.40
2022-10-07T03:28:33.717Z,16.38
2022-10-07T03:31:05.946Z,15.60
2022-10-07T03:33:32.906Z,13.43
2022-10-07T03:35:59.873Z,15.13
2022-10-07T03:38:26.939Z,15.52
2022-10-07T03:40:53.940Z,17.50
2022-10-07T03:43:20.871Z,16.92
2022-10-07T03:45:51.166Z,18.90
2022-10-07T03:48:18.656Z,14.63
2022-10-07T03:50:52.702Z,19.33
2022-10-07T03:53:20.639Z,18.55
2022-10-07T03:55:47.601Z,17.83
2022-10-07T03:58:14.522Z,18.80
2022-10-07T04:00:41.686Z,18.48
2022-10-07T04:03:09.901Z,18.23
2022-10-07T04:05:37.786Z,18.05
2022-10-07T04:08:05.682Z,17.40
2022-10-07T04:10:33.425Z,17.80
2022-10-07T04:13:01.123Z,17.17
2022-10-07T04:15:28.253Z,14.07
2022-10-07T04:18:00.422Z,19.55
2022-10-07T04:20:27.545Z,16.50
2022-10-07T04:22:54.503Z,17.98
2022-10-07T04:25:38.115Z,18.58
2022-10-07T04:28:08.807Z,17.90
2022-10-07T04:30:40.319Z,18.88
2022-10-07T04:33:08.413Z,18.48
2022-10-07T04:35:38.094Z,18.95
2022-10-07T04:38:10.105Z,17.40
2022-10-07T04:40:42.086Z,18.63
2022-10-07T04:43:20.329Z,18.60
2022-10-07T04:45:49.754Z,20.48
2022-10-07T04:48:18.755Z,19.20
2022-10-07T04:50:46.418Z,17.83
2022-10-07T04:53:15.806Z,19.65
2022-10-07T04:55:48.601Z,18.65
2022-10-07T04:58:16.557Z,18.38
2022-10-07T05:00:52.215Z,17.98
2022-10-07T05:03:20.790Z,15.73
2022-10-07T05:05:50.213Z,19.42
2022-10-07T05:08:19.672Z,18.92
2022-10-07T05:10:47.481Z,17.25
2022-10-07T05:13:17.250Z,19.98
2022-10-07T05:15:58.584Z,19.60
2022-10-07T05:18:27.901Z,19.80
2022-10-07T05:20:55.631Z,17.58
2022-10-07T05:23:28.377Z,19.48
2022-10-07T05:26:05.079Z,15.60
2022-10-07T05:28:32.434Z,18.10
2022-10-07T05:31:17.709Z,17.08
2022-10-07T05:33:44.667Z,19.10
2022-10-07T05:36:12.571Z,16.85
2022-10-07T05:38:39.495Z,15.75
2022-10-07T05:41:08.726Z,16.70
2022-10-07T05:43:38.411Z,18.13
2022-10-07T05:46:07.945Z,15.38
2022-10-07T05:48:39.262Z,15.98
2022-10-07T05:51:08.667Z,17.67
2022-10-07T05:53:36.064Z,15.77
2022-10-07T05:56:07.043Z,17.33
2022-10-07T05:58:36.487Z,17.23
2022-10-07T06:01:10.011Z,16.00
2022-10-07T06:03:40.882Z,15.73
2022-10-07T06:06:09.243Z,16.92
2022-10-07T06:08:37.049Z,14.00
2022-10-07T06:11:23.929Z,16.23
2022-10-07T06:13:54.393Z,19.02
2022-10-07T06:16:22.375Z,17.63
2022-10-07T06:18:52.638Z,20.35
2022-10-07T06:21:21.311Z,20.70
2022-10-07T06:23:52.417Z,20.63
2022-10-07T06:26:20.433Z,19.70
2022-10-07T06:28:48.245Z,21.42
2022-10-07T06:31:25.451Z,22.27
2022-10-07T06:33:53.278Z,23.17
2022-10-07T06:36:20.758Z,23.80
2022-10-07T06:38:51.025Z,19.80
2022-10-07T06:41:19.059Z,20.23
2022-10-07T06:43:46.174Z,19.30
2022-10-07T06:46:16.395Z,22.10
2022-10-07T06:48:44.917Z,20.25
2022-10-07T06:51:17.173Z,20.55
2022-10-07T06:53:45.024Z,21.35
2022-10-07T06:56:14.877Z,17.80
2022-10-07T06:58:43.588Z,20.42
2022-10-07T07:01:11.879Z,19.02
2022-10-07T07:03:39.181Z,19.27
2022-10-07T07:06:08.204Z,18.98
2022-10-07T07:08:35.673Z,18.88
2022-10-07T07:11:05.843Z,19.15
2022-10-07T07:13:35.477Z,19.15
2022-10-07T07:16:02.671Z,20.00
2022-10-07T07:18:30.228Z,22.70
2022-10-07T07:21:02.943Z,21.38
2022-10-07T07:23:29.874Z,23.27
2022-10-07T07:25:56.815Z,19.95
2022-10-07T07:28:23.770Z,19.63
2022-10-07T07:30:50.807Z,20.35
2022-10-07T07:33:17.864Z,19.30
2022-10-07T07:35:45.302Z,23.38
2022-10-07T07:38:12.278Z,23.25
2022-10-07T07:40:39.993Z,24.10
2022-10-07T07:43:08.202Z,23.25
2022-10-07T07:45:38.458Z,26.52
2022-10-07T07:48:05.577Z,26.88
2022-10-07T07:50:32.667Z,27.33
2022-10-07T07:53:02.262Z,29.40
2022-10-07T07:55:29.217Z,25.13
2022-10-07T07:57:56.088Z,24.55
2022-10-07T08:00:23.067Z,26.95
2022-10-07T08:02:50.072Z,29.75
2022-10-07T08:05:20.211Z,25.42
2022-10-07T08:07:50.507Z,22.27
2022-10-07T08:10:17.495Z,23.60
2022-10-07T08:12:44.460Z,23.75
2022-10-07T08:15:11.333Z,28.95
2022-10-07T08:17:38.258Z,24.67
2022-10-07T08:20:05.673Z,24.30
2022-10-07T08:22:32.647Z,25.05
2022-10-07T08:25:00.583Z,23.88
2022-10-07T08:27:28.570Z,23.23
2022-10-07T08:29:55.557Z,19.33
2022-10-07T08:32:22.552Z,18.00
2022-10-07T08:34:49.616Z,16.65
2022-10-07T08:37:16.582Z,15.23
2022-10-07T08:39:43.572Z,15.95
2022-10-07T08:42:30.946Z,14.93
2022-10-07T08:44:58.145Z,13.23
2022-10-07T08:47:38.371Z,12.13
2022-10-07T08:50:19.105Z,9.85
2022-10-07T08:52:51.175Z,10.27
2022-10-07T08:55:24.627Z,9.18
2022-10-07T08:57:55.202Z,9.10
2022-10-07T09:00:25.187Z,9.13
2022-10-07T09:03:07.772Z,8.20
2022-10-07T09:05:41.401Z,9.38
2022-10-07T09:08:28.172Z,7.65
2022-10-07T09:11:03.421Z,7.55
2022-10-07T09:13:40.694Z,7.55
2022-10-07T09:16:10.513Z,7.15
2022-10-07T09:18:42.701Z,7.43
2022-10-07T09:21:17.610Z,8.00
2022-10-07T09:23:46.789Z,7.05
2022-10-07T09:26:17.027Z,6.95
2022-10-07T09:28:44.090Z,6.32
2022-10-07T09:31:15.056Z,5.75
2022-10-07T09:33:45.946Z,5.93
2022-10-07T09:38:52.771Z,5.50
2022-10-07T09:41:38.945Z,5.80
2022-10-07T09:44:25.754Z,6.20
2022-10-07T09:46:56.536Z,7.10
2022-10-07T09:52:05.982Z,6.40
2022-10-07T09:54:36.042Z,5.20
2022-10-07T09:57:05.171Z,5.72
2022-10-07T09:59:37.125Z,5.90
2022-10-07T10:02:10.329Z,5.28
2022-10-07T10:04:40.443Z,5.93
2022-10-07T10:07:17.334Z,5.03
2022-10-07T10:09:55.876Z,4.38
2022-10-07T10:12:25.170Z,3.30
2022-10-07T10:14:53.393Z,4.90
2022-10-07T10:17:40.150Z,4.03
2022-10-07T10:20:36.543Z,3.97
2022-10-07T10:23:28.092Z,3.70
2022-10-07T10:26:19.575Z,3.13
2022-10-07T10:29:14.263Z,2.45
2022-10-07T10:32:07.850Z,2.97
2022-10-07T10:34:53.291Z,2.85
2022-10-07T10:37:33.644Z,2.72
2022-10-07T10:40:21.241Z,2.22
2022-10-07T10:43:11.262Z,2.35
2022-10-07T10:46:16.285Z,2.70
2022-10-07T10:49:16.288Z,2.60
2022-10-07T10:51:58.927Z,2.70
2022-10-07T10:54:39.339Z,2.85
2022-10-07T10:57:43.617Z,2.95
2022-10-07T11:00:15.821Z,2.85
2022-10-07T11:03:04.625Z,2.78
2022-10-07T11:05:37.603Z,3.05
2022-10-07T11:08:37.840Z,2.72
2022-10-07T11:11:11.542Z,2.28
2022-10-07T11:13:54.881Z,2.83
2022-10-07T11:16:47.922Z,2.40
2022-10-07T11:19:20.759Z,3.08
2022-10-07T11:21:50.930Z,3.33
2022-10-07T11:24:29.602Z,3.33
2022-10-07T11:27:11.804Z,2.33
2022-10-07T11:29:52.471Z,2.22
2022-10-07T11:32:36.237Z,2.55
2022-10-07T11:35:30.434Z,2.55
2022-10-07T11:38:13.323Z,2.42
2022-10-07T11:40:46.220Z,2.58
2022-10-07T11:43:21.902Z,2.83
2022-10-07T11:45:52.974Z,3.33
2022-10-07T11:48:27.404Z,3.17
2022-10-07T11:51:01.993Z,3.00
2022-10-07T11:53:34.894Z,2.80
2022-10-07T11:56:23.149Z,2.78
2022-10-07T11:59:05.526Z,2.85
2022-10-07T12:01:35.371Z,2.60
2022-10-07T12:04:34.303Z,2.43
2022-10-07T12:07:32.637Z,2.80
2022-10-07T12:10:02.625Z,1.85
2022-10-07T12:12:57.142Z,2.37
2022-10-07T12:15:36.288Z,2.60
2022-10-07T12:18:06.226Z,2.33
2022-10-07T12:20:51.504Z,2.23
2022-10-07T12:23:22.945Z,2.53
2022-10-07T12:25:54.983Z,2.40
2022-10-07T12:28:30.295Z,2.40
2022-10-07T12:31:02.597Z,2.22
2022-10-07T12:33:52.839Z,2.40
2022-10-07T12:36:22.625Z,2.40
2022-10-07T12:39:12.720Z,2.40
2022-10-07T12:41:45.561Z,2.60
2022-10-07T12:44:15.497Z,2.50
2022-10-07T12:47:15.085Z,2.00
2022-10-07T12:50:07.666Z,2.30
2022-10-07T12:52:46.237Z,2.42
2022-10-07T12:55:23.808Z,2.70
2022-10-07T12:57:55.300Z,2.20
2022-10-07T13:00:28.137Z,2.60
2022-10-07T13:03:29.468Z,2.50
2022-10-07T13:06:07.970Z,2.60
2022-10-07T13:09:02.994Z,2.90
2022-10-07T13:11:48.333Z,2.80
2022-10-07T13:14:41.912Z,2.47
2022-10-07T13:17:21.076Z,2.80
2022-10-07T13:19:52.975Z,2.30
2022-10-07T13:22:20.519Z,3.13
2022-10-07T13:24:53.928Z,3.08
2022-10-07T13:27:25.630Z,3.60
2022-10-07T13:29:53.613Z,3.17
2022-10-07T13:32:32.683Z,2.78
2022-10-07T13:35:01.801Z,2.50
2022-10-07T13:37:35.192Z,2.22
2022-10-07T13:40:22.782Z,3.08
2022-10-07T13:42:59.511Z,2.90
2022-10-07T13:45:28.050Z,2.95
2022-10-07T13:47:57.499Z,3.45
2022-10-07T13:50:27.494Z,3.53
2022-10-07T13:52:56.375Z,2.93
2022-10-07T13:55:26.406Z,3.25
2022-10-07T13:57:57.616Z,3.17
2022-10-07T14:00:29.399Z,3.47
2022-10-07T14:02:56.471Z,3.15
2022-10-07T14:05:30.574Z,3.28
2022-10-07T14:08:11.414Z,2.95
2022-10-07T14:13:16.847Z,3.60
2022-10-07T14:15:49.099Z,3.13
2022-10-07T14:18:20.411Z,4.00
2022-10-07T14:20:56.198Z,3.25
2022-10-07T14:23:34.625Z,3.47
2022-10-07T14:26:06.387Z,4.70
2022-10-07T14:28:35.530Z,7.43
2022-10-07T14:31:27.409Z,3.90
2022-10-07T14:34:16.078Z,3.30
2022-10-07T14:37:05.212Z,3.58
2022-10-07T14:39:53.497Z,3.80
2022-10-07T14:42:26.858Z,4.57
2022-10-07T14:44:56.274Z,4.80
2022-10-07T14:47:28.570Z,3.45
2022-10-07T14:49:57.357Z,3.63
2022-10-07T14:52:52.503Z,3.65
2022-10-07T14:55:25.816Z,4.18
2022-10-07T14:57:53.262Z,3.67
2022-10-07T15:00:30.221Z,3.70
2022-10-07T15:02:57.165Z,3.30
2022-10-07T15:05:24.914Z,3.25
2022-10-07T15:07:52.119Z,2.72
2022-10-07T15:10:22.310Z,3.42
2022-10-07T15:12:50.393Z,3.53
2022-10-07T15:15:17.816Z,3.67
2022-10-07T15:17:44.830Z,3.92
2022-10-07T15:20:14.874Z,4.30
2022-10-07T15:22:42.395Z,4.22
2022-10-07T15:25:10.945Z,4.45
2022-10-07T15:27:38.393Z,4.63
2022-10-07T15:30:07.409Z,4.10
2022-10-07T15:32:34.778Z,3.95
2022-10-07T15:35:01.998Z,3.67
2022-10-07T15:37:28.871Z,4.30
2022-10-07T15:39:56.024Z,5.80
2022-10-07T15:42:26.049Z,6.20
2022-10-07T15:44:54.152Z,6.63
2022-10-07T15:47:21.144Z,6.53
2022-10-07T15:49:49.252Z,6.57
2022-10-07T15:52:16.790Z,7.65
2022-10-07T15:54:46.592Z,6.47
2022-10-07T15:57:14.584Z,7.07
2022-10-07T15:59:42.450Z,6.88
2022-10-07T16:02:18.130Z,6.38
2022-10-07T16:04:47.596Z,6.28
2022-10-07T16:07:15.621Z,6.38
2022-10-07T16:09:42.618Z,7.00
2022-10-07T16:12:09.701Z,6.32
2022-10-07T16:14:36.734Z,7.07
2022-10-07T16:17:04.892Z,7.55
2022-10-07T16:19:31.846Z,8.15
2022-10-07T16:21:58.835Z,15.25
2022-10-07T16:24:25.806Z,25.05
2022-10-07T16:26:53.118Z,25.05
2022-10-07T16:29:40.909Z,16.45
2022-10-07T16:32:13.029Z,14.88
2022-10-07T16:34:43.764Z,13.35
2022-10-07T16:39:38.560Z,12.20
2022-10-07T16:42:05.621Z,11.80
2022-10-07T16:44:32.653Z,12.07
2022-10-07T16:47:00.659Z,12.27
2022-10-07T16:49:29.636Z,12.50
2022-10-07T16:51:57.046Z,12.65
2022-10-07T16:54:24.694Z,13.43
2022-10-07T16:56:52.844Z,12.25
2022-10-07T16:59:26.325Z,13.65
2022-10-07T17:01:55.997Z,11.82
2022-10-07T17:04:25.039Z,12.70
2022-10-07T17:06:52.845Z,12.63
2022-10-07T17:09:20.047Z,14.27
2022-10-07T17:11:47.260Z,12.63
2022-10-07T17:14:19.739Z,13.65
2022-10-07T17:16:51.995Z,13.35
2022-10-07T17:19:24.303Z,14.75
2022-10-07T17:21:53.033Z,13.77
2022-10-07T17:24:22.762Z,19.02
2022-10-07T17:26:50.717Z,22.25
2022-10-07T17:29:21.017Z,27.20
2022-10-07T17:31:50.974Z,26.50
2022-10-07T17:34:23.035Z,21.10
2022-10-07T17:36:50.756Z,18.95
2022-10-07T17:39:19.643Z,17.67
2022-10-07T17:41:47.500Z,15.15
2022-10-07T17:44:14.496Z,14.32
2022-10-07T17:46:41.711Z,13.75
2022-10-07T17:49:13.675Z,13.07
2022-10-07T17:51:42.893Z,12.75
2022-10-07T17:54:11.893Z,12.40
2022-10-07T17:56:38.892Z,12.30
2022-10-07T17:59:05.830Z,13.98
2022-10-07T18:01:34.972Z,15.32
2022-10-07T18:04:04.667Z,15.75
2022-10-07T18:06:34.874Z,16.48
2022-10-07T18:09:04.683Z,16.80
2022-10-07T18:11:51.272Z,16.23
2022-10-07T18:14:37.234Z,15.88
2022-10-07T18:17:05.238Z,14.60
2022-10-07T18:19:32.458Z,14.77
2022-10-07T18:21:59.394Z,16.95
2022-10-07T18:24:29.067Z,14.98
2022-10-07T18:26:59.416Z,15.18
2022-10-07T18:29:31.447Z,15.00
2022-10-07T18:31:58.800Z,13.95
2022-10-07T18:34:25.841Z,13.85
2022-10-07T18:36:56.652Z,15.25
2022-10-07T18:39:25.243Z,14.70
2022-10-07T18:41:52.180Z,15.63
2022-10-07T18:44:19.331Z,16.30
2022-10-07T18:46:46.363Z,16.83
2022-10-07T18:49:14.159Z,15.02
2022-10-07T18:51:41.580Z,17.75
2022-10-07T18:54:08.808Z,17.70
2022-10-07T18:56:40.015Z,19.48
2022-10-07T18:59:08.160Z,18.15
2022-10-07T19:01:35.246Z,16.08
2022-10-07T19:04:03.497Z,20.15
2022-10-07T19:06:32.540Z,20.98
2022-10-07T19:09:03.433Z,22.50
2022-10-07T19:11:30.841Z,24.42
2022-10-07T19:13:59.539Z,25.70
2022-10-07T19:16:34.922Z,25.60
2022-10-07T19:19:05.200Z,26.42
2022-10-07T19:21:32.569Z,27.85
2022-10-07T19:24:03.851Z,29.67
2022-10-07T19:26:43.184Z,31.90
2022-10-07T19:29:11.748Z,32.28
2022-10-07T19:31:41.775Z,41.25
2022-10-07T19:34:20.484Z,39.20
2022-10-07T19:36:48.738Z,31.95
2022-10-07T19:39:18.491Z,26.70
2022-10-07T19:41:46.415Z,33.90
2022-10-07T19:44:14.460Z,34.63
2022-10-07T19:46:41.855Z,42.05
2022-10-07T19:49:09.571Z,35.35
2022-10-07T19:51:37.595Z,34.63
2022-10-07T19:54:10.307Z,28.17
2022-10-07T19:56:37.737Z,25.65
2022-10-07T19:59:07.708Z,23.25
2022-10-07T20:01:37.905Z,19.17
2022-10-07T20:04:07.719Z,21.55
2022-10-07T20:06:39.171Z,19.83
2022-10-07T20:09:08.890Z,20.52
2022-10-07T20:11:36.771Z,19.92
2022-10-07T20:14:06.093Z,20.83
2022-10-07T20:16:34.053Z,19.73
2022-10-07T20:19:06.046Z,20.20
2022-10-07T20:21:35.938Z,19.63
2022-10-07T20:24:04.541Z,19.05
2022-10-07T20:26:34.283Z,18.95
2022-10-07T20:29:02.974Z,17.92
2022-10-07T20:31:32.814Z,15.32
2022-10-07T20:34:00.544Z,15.50
2022-10-07T20:36:30.764Z,17.88
2022-10-07T20:39:47.005Z,16.20
2022-10-07T20:42:24.692Z,18.35
2022-10-07T20:44:52.866Z,15.73
2022-10-07T20:47:20.957Z,18.02
2022-10-07T20:49:49.290Z,16.88
2022-10-07T20:52:21.399Z,17.35
2022-10-07T20:54:48.422Z,14.50
2022-10-07T20:57:17.883Z,16.35
2022-10-07T20:59:44.888Z,15.57
2022-10-07T21:02:13.883Z,15.77
2022-10-07T21:04:41.339Z,16.15
2022-10-07T21:07:08.807Z,14.27
2022-10-07T21:09:40.138Z,16.23
2022-10-07T21:12:14.028Z,14.63
2022-10-07T21:14:42.597Z,13.38
2022-10-07T21:17:09.782Z,15.13
2022-10-07T21:19:36.927Z,14.20
2022-10-07T21:22:05.598Z,15.73
2022-10-07T21:24:36.342Z,16.13
2022-10-07T21:29:31.683Z,13.95
2022-10-07T21:31:58.906Z,14.80
2022-10-07T21:34:26.359Z,14.25
2022-10-07T21:36:54.759Z,15.50
2022-10-07T21:39:21.885Z,16.27
2022-10-07T21:41:49.793Z,14.52
2022-10-07T21:44:19.730Z,15.55
2022-10-07T21:46:47.115Z,16.47
2022-10-07T21:49:14.999Z,16.10
2022-10-07T21:51:42.952Z,15.55
2022-10-07T21:54:14.572Z,16.50
2022-10-07T21:56:44.059Z,14.77
2022-10-07T21:59:11.687Z,15.82
2022-10-07T22:01:39.052Z,17.65
2022-10-07T22:04:06.327Z,16.85
2022-10-07T22:06:51.917Z,16.70
2022-10-07T22:09:21.497Z,14.40
2022-10-07T22:11:49.219Z,13.90
2022-10-07T22:14:17.589Z,15.13
2022-10-07T22:16:48.524Z,15.15
2022-10-07T22:19:17.802Z,14.55
2022-10-07T22:21:46.040Z,14.93
2022-10-07T22:24:14.379Z,14.25
2022-10-07T22:26:46.266Z,16.35
2022-10-07T22:29:16.407Z,13.13
2022-10-07T22:31:43.529Z,13.30
2022-10-07T22:34:33.958Z,13.30
2022-10-07T22:37:01.355Z,13.82
2022-10-07T22:39:31.764Z,13.27
2022-10-07T22:42:00.124Z,13.65
2022-10-07T22:44:28.456Z,13.70
2022-10-07T22:46:56.737Z,14.70
2022-10-07T22:49:27.336Z,13.93
2022-10-07T22:51:56.697Z,14.90
2022-10-07T22:54:23.669Z,16.02
2022-10-07T22:56:50.631Z,15.43
2022-10-07T22:59:17.593Z,15.80
2022-10-07T23:01:44.551Z,14.63
2022-10-07T23:04:11.512Z,13.73
2022-10-07T23:06:38.401Z,14.05
2022-10-07T23:09:05.575Z,15.15
2022-10-07T23:11:32.598Z,14.80
2022-10-07T23:14:00.225Z,14.82
2022-10-07T23:16:29.942Z,14.35
2022-10-07T23:18:58.756Z,15.27
2022-10-07T23:21:32.872Z,12.90
2022-10-07T23:24:06.961Z,14.52
2022-10-07T23:26:35.763Z,12.75
2022-10-07T23:29:03.202Z,13.77
2022-10-07T23:31:32.213Z,15.63
2022-10-07T23:34:01.177Z,14.35
2022-10-07T23:36:29.348Z,15.63
2022-10-07T23:38:58.250Z,15.93
2022-10-07T23:41:27.607Z,16.02
2022-10-07T23:43:57.215Z,16.35
2022-10-07T23:46:26.605Z,17.00
2022-10-07T23:48:54.189Z,16.75
2022-10-07T23:51:23.623Z,18.75
2022-10-07T23:53:51.139Z,16.35
2022-10-07T23:56:19.054Z,15.73
2022-10-07T23:58:46.176Z,15.95
